sensor_id;sensor_type;location;lat;lon;timestamp;P1;durP1;ratioP1;P2;durP2;ratioP2
46931;SDS011;32670;51.464;11.964;2023-03-31T00:01:28;2.17;;;1.97;;
46931;SDS011;32670;51.464;11.964;2023-03-31T00:03:54;1.90;;;1.80;;
46931;SDS011;32670;51.464;11.964;2023-03-31T00:06:29;1.63;;;1.53;;
46931;SDS011;32670;51.464;11.964;2023-03-31T00:08:55;1.93;;;1.83;;
46931;SDS011;32670;51.464;11.964;2023-03-31T00:11:25;2.17;;;1.97;;
46931;SDS011;32670;51.464;11.964;2023-03-31T00:13:51;2.00;;;1.90;;
46931;SDS011;32670;51.464;11.964;2023-03-31T00:16:20;1.90;;;1.80;;
46931;SDS011;32670;51.464;11.964;2023-03-31T00:18:45;2.40;;;1.93;;
46931;SDS011;32670;51.464;11.964;2023-03-31T00:21:14;4.47;;;1.93;;
46931;SDS011;32670;51.464;11.964;2023-03-31T00:24:01;2.23;;;1.63;;
46931;SDS011;32670;51.464;11.964;2023-03-31T00:26:28;4.23;;;2.00;;
46931;SDS011;32670;51.464;11.964;2023-03-31T00:28:54;3.13;;;2.00;;
46931;SDS011;32670;51.464;11.964;2023-03-31T00:31:20;2.40;;;1.80;;
46931;SDS011;32670;51.464;11.964;2023-03-31T00:33:46;4.43;;;2.00;;
46931;SDS011;32670;51.464;11.964;2023-03-31T00:36:12;3.57;;;2.00;;
46931;SDS011;32670;51.464;11.964;2023-03-31T00:38:45;2.93;;;1.73;;
46931;SDS011;32670;51.464;11.964;2023-03-31T00:41:11;2.13;;;1.90;;
46931;SDS011;32670;51.464;11.964;2023-03-31T00:43:38;2.43;;;1.60;;
46931;SDS011;32670;51.464;11.964;2023-03-31T00:48:50;2.33;;;1.87;;
46931;SDS011;32670;51.464;11.964;2023-03-31T00:51:21;3.53;;;1.83;;
46931;SDS011;32670;51.464;11.964;2023-03-31T00:53:49;2.00;;;1.83;;
46931;SDS011;32670;51.464;11.964;2023-03-31T00:56:24;2.23;;;1.70;;
46931;SDS011;32670;51.464;11.964;2023-03-31T00:58:51;2.37;;;1.90;;
46931;SDS011;32670;51.464;11.964;2023-03-31T01:01:21;2.87;;;1.60;;
46931;SDS011;32670;51.464;11.964;2023-03-31T01:03:51;2.37;;;1.70;;
46931;SDS011;32670;51.464;11.964;2023-03-31T01:06:17;1.80;;;1.70;;
46931;SDS011;32670;51.464;11.964;2023-03-31T01:08:44;1.70;;;1.60;;
46931;SDS011;32670;51.464;11.964;2023-03-31T01:11:12;3.60;;;1.90;;
46931;SDS011;32670;51.464;11.964;2023-03-31T01:13:40;2.23;;;2.03;;
46931;SDS011;32670;51.464;11.964;2023-03-31T01:16:07;1.77;;;1.67;;
46931;SDS011;32670;51.464;11.964;2023-03-31T01:18:33;2.53;;;1.50;;
46931;SDS011;32670;51.464;11.964;2023-03-31T01:21:10;2.37;;;1.87;;
46931;SDS011;32670;51.464;11.964;2023-03-31T01:26:55;4.43;;;1.90;;
46931;SDS011;32670;51.464;11.964;2023-03-31T01:29:56;3.17;;;1.83;;
46931;SDS011;32670;51.464;11.964;2023-03-31T01:35:34;1.93;;;1.50;;
46931;SDS011;32670;51.464;11.964;2023-03-31T01:43:47;2.90;;;1.70;;
46931;SDS011;32670;51.464;11.964;2023-03-31T01:46:40;1.60;;;1.50;;
46931;SDS011;32670;51.464;11.964;2023-03-31T01:49:17;1.63;;;1.53;;
46931;SDS011;32670;51.464;11.964;2023-03-31T01:52:03;2.20;;;1.43;;
46931;SDS011;32670;51.464;11.964;2023-03-31T01:54:36;1.90;;;1.50;;
46931;SDS011;32670;51.464;11.964;2023-03-31T01:57:11;2.37;;;1.47;;
46931;SDS011;32670;51.464;11.964;2023-03-31T01:59:47;2.00;;;1.80;;
46931;SDS011;32670;51.464;11.964;2023-03-31T02:02:47;1.50;;;1.40;;
46931;SDS011;32670;51.464;11.964;2023-03-31T02:05:22;2.53;;;1.73;;
46931;SDS011;32670;51.464;11.964;2023-03-31T02:07:54;1.90;;;1.70;;
46931;SDS011;32670;51.464;11.964;2023-03-31T02:10:24;2.00;;;1.60;;
46931;SDS011;32670;51.464;11.964;2023-03-31T02:12:53;1.60;;;1.50;;
46931;SDS011;32670;51.464;11.964;2023-03-31T02:15:20;1.63;;;1.53;;
46931;SDS011;32670;51.464;11.964;2023-03-31T02:17:52;1.50;;;1.40;;
46931;SDS011;32670;51.464;11.964;2023-03-31T02:20:20;1.50;;;1.40;;
46931;SDS011;32670;51.464;11.964;2023-03-31T02:22:48;1.57;;;1.40;;
46931;SDS011;32670;51.464;11.964;2023-03-31T02:25:19;2.03;;;1.57;;
46931;SDS011;32670;51.464;11.964;2023-03-31T02:28:30;1.50;;;1.40;;
46931;SDS011;32670;51.464;11.964;2023-03-31T02:33:32;1.80;;;1.50;;
46931;SDS011;32670;51.464;11.964;2023-03-31T02:35:58;1.60;;;1.50;;
46931;SDS011;32670;51.464;11.964;2023-03-31T02:38:23;1.60;;;1.50;;
46931;SDS011;32670;51.464;11.964;2023-03-31T02:40:49;2.97;;;1.57;;
46931;SDS011;32670;51.464;11.964;2023-03-31T02:43:15;2.17;;;1.60;;
46931;SDS011;32670;51.464;11.964;2023-03-31T02:48:18;3.80;;;1.47;;
46931;SDS011;32670;51.464;11.964;2023-03-31T02:56:34;2.93;;;1.40;;
46931;SDS011;32670;51.464;11.964;2023-03-31T03:04:51;1.50;;;1.40;;
46931;SDS011;32670;51.464;11.964;2023-03-31T03:07:54;2.03;;;1.43;;
46931;SDS011;32670;51.464;11.964;2023-03-31T03:10:27;1.80;;;1.53;;
46931;SDS011;32670;51.464;11.964;2023-03-31T03:13:20;1.60;;;1.50;;
46931;SDS011;32670;51.464;11.964;2023-03-31T03:15:48;1.90;;;1.50;;
46931;SDS011;32670;51.464;11.964;2023-03-31T03:18:19;1.93;;;1.53;;
46931;SDS011;32670;51.464;11.964;2023-03-31T03:20:45;1.50;;;1.40;;
46931;SDS011;32670;51.464;11.964;2023-03-31T03:23:13;1.63;;;1.50;;
46931;SDS011;32670;51.464;11.964;2023-03-31T03:25:39;3.10;;;1.37;;
46931;SDS011;32670;51.464;11.964;2023-03-31T03:28:05;3.57;;;1.67;;
46931;SDS011;32670;51.464;11.964;2023-03-31T03:30:31;2.03;;;1.30;;
46931;SDS011;32670;51.464;11.964;2023-03-31T03:32:56;1.33;;;1.23;;
46931;SDS011;32670;51.464;11.964;2023-03-31T03:35:22;1.33;;;1.23;;
46931;SDS011;32670;51.464;11.964;2023-03-31T03:37:48;3.67;;;1.30;;
46931;SDS011;32670;51.464;11.964;2023-03-31T03:40:14;1.57;;;1.43;;
46931;SDS011;32670;51.464;11.964;2023-03-31T03:42:39;2.17;;;1.40;;
46931;SDS011;32670;51.464;11.964;2023-03-31T03:45:05;2.03;;;1.40;;
46931;SDS011;32670;51.464;11.964;2023-03-31T03:47:31;2.17;;;1.37;;
46931;SDS011;32670;51.464;11.964;2023-03-31T03:49:57;2.47;;;1.40;;
46931;SDS011;32670;51.464;11.964;2023-03-31T03:52:23;1.70;;;1.60;;
46931;SDS011;32670;51.464;11.964;2023-03-31T03:54:48;2.20;;;1.23;;
46931;SDS011;32670;51.464;11.964;2023-03-31T03:57:13;1.70;;;1.43;;
46931;SDS011;32670;51.464;11.964;2023-03-31T03:59:39;3.47;;;1.37;;
46931;SDS011;32670;51.464;11.964;2023-03-31T04:02:04;1.60;;;1.50;;
46931;SDS011;32670;51.464;11.964;2023-03-31T04:04:30;2.10;;;1.30;;
46931;SDS011;32670;51.464;11.964;2023-03-31T04:06:56;2.17;;;1.43;;
46931;SDS011;32670;51.464;11.964;2023-03-31T04:09:21;1.67;;;1.37;;
46931;SDS011;32670;51.464;11.964;2023-03-31T04:11:47;2.60;;;1.43;;
46931;SDS011;32670;51.464;11.964;2023-03-31T04:14:12;1.20;;;1.13;;
46931;SDS011;32670;51.464;11.964;2023-03-31T04:16:37;1.43;;;1.10;;
46931;SDS011;32670;51.464;11.964;2023-03-31T04:19:04;1.10;;;1.00;;
46931;SDS011;32670;51.464;11.964;2023-03-31T04:21:30;3.60;;;1.50;;
46931;SDS011;32670;51.464;11.964;2023-03-31T04:23:59;3.73;;;1.60;;
46931;SDS011;32670;51.464;11.964;2023-03-31T04:26:29;1.80;;;1.43;;
46931;SDS011;32670;51.464;11.964;2023-03-31T04:29:07;2.40;;;1.20;;
46931;SDS011;32670;51.464;11.964;2023-03-31T04:31:33;1.47;;;1.17;;
46931;SDS011;32670;51.464;11.964;2023-03-31T04:34:02;2.30;;;1.40;;
46931;SDS011;32670;51.464;11.964;2023-03-31T04:36:30;3.10;;;1.30;;
46931;SDS011;32670;51.464;11.964;2023-03-31T04:38:56;4.50;;;1.30;;
46931;SDS011;32670;51.464;11.964;2023-03-31T04:41:23;2.43;;;1.30;;
46931;SDS011;32670;51.464;11.964;2023-03-31T04:43:49;2.40;;;1.10;;
46931;SDS011;32670;51.464;11.964;2023-03-31T04:46:15;8.20;;;1.47;;
46931;SDS011;32670;51.464;11.964;2023-03-31T04:48:41;4.07;;;1.33;;
46931;SDS011;32670;51.464;11.964;2023-03-31T04:51:06;2.20;;;1.50;;
46931;SDS011;32670;51.464;11.964;2023-03-31T04:53:33;2.47;;;1.53;;
46931;SDS011;32670;51.464;11.964;2023-03-31T04:55:58;1.93;;;1.10;;
46931;SDS011;32670;51.464;11.964;2023-03-31T04:58:24;1.97;;;1.40;;
46931;SDS011;32670;51.464;11.964;2023-03-31T05:00:50;2.73;;;1.30;;
46931;SDS011;32670;51.464;11.964;2023-03-31T05:03:16;1.93;;;1.13;;
46931;SDS011;32670;51.464;11.964;2023-03-31T05:05:42;1.57;;;1.30;;
46931;SDS011;32670;51.464;11.964;2023-03-31T05:08:07;2.97;;;1.30;;
46931;SDS011;32670;51.464;11.964;2023-03-31T05:10:33;1.57;;;1.30;;
46931;SDS011;32670;51.464;11.964;2023-03-31T05:12:58;3.17;;;1.53;;
46931;SDS011;32670;51.464;11.964;2023-03-31T05:15:24;2.77;;;1.40;;
46931;SDS011;32670;51.464;11.964;2023-03-31T05:17:49;4.83;;;1.37;;
46931;SDS011;32670;51.464;11.964;2023-03-31T05:20:16;1.23;;;1.10;;
46931;SDS011;32670;51.464;11.964;2023-03-31T05:22:41;1.37;;;1.20;;
46931;SDS011;32670;51.464;11.964;2023-03-31T05:25:07;3.57;;;1.00;;
46931;SDS011;32670;51.464;11.964;2023-03-31T05:27:33;1.30;;;1.00;;
46931;SDS011;32670;51.464;11.964;2023-03-31T05:30:00;1.90;;;1.27;;
46931;SDS011;32670;51.464;11.964;2023-03-31T05:32:26;2.53;;;1.17;;
46931;SDS011;32670;51.464;11.964;2023-03-31T05:34:52;2.60;;;1.20;;
46931;SDS011;32670;51.464;11.964;2023-03-31T05:37:21;6.80;;;1.30;;
46931;SDS011;32670;51.464;11.964;2023-03-31T05:39:47;2.80;;;1.30;;
46931;SDS011;32670;51.464;11.964;2023-03-31T05:42:12;4.83;;;1.23;;
46931;SDS011;32670;51.464;11.964;2023-03-31T05:44:38;2.77;;;1.13;;
46931;SDS011;32670;51.464;11.964;2023-03-31T05:47:03;2.97;;;1.40;;
46931;SDS011;32670;51.464;11.964;2023-03-31T05:49:29;6.07;;;1.40;;
46931;SDS011;32670;51.464;11.964;2023-03-31T05:51:55;2.93;;;1.30;;
46931;SDS011;32670;51.464;11.964;2023-03-31T05:54:21;4.20;;;1.40;;
46931;SDS011;32670;51.464;11.964;2023-03-31T05:56:46;4.27;;;1.30;;
46931;SDS011;32670;51.464;11.964;2023-03-31T05:59:12;3.50;;;1.33;;
46931;SDS011;32670;51.464;11.964;2023-03-31T06:01:37;2.67;;;1.27;;
46931;SDS011;32670;51.464;11.964;2023-03-31T06:04:03;3.33;;;1.40;;
46931;SDS011;32670;51.464;11.964;2023-03-31T06:06:28;4.10;;;1.67;;
46931;SDS011;32670;51.464;11.964;2023-03-31T06:08:54;3.90;;;1.53;;
46931;SDS011;32670;51.464;11.964;2023-03-31T06:11:20;3.87;;;1.27;;
46931;SDS011;32670;51.464;11.964;2023-03-31T06:13:46;4.37;;;1.63;;
46931;SDS011;32670;51.464;11.964;2023-03-31T06:16:13;2.10;;;1.10;;
46931;SDS011;32670;51.464;11.964;2023-03-31T06:18:40;2.40;;;1.20;;
46931;SDS011;32670;51.464;11.964;2023-03-31T06:21:06;2.13;;;1.00;;
46931;SDS011;32670;51.464;11.964;2023-03-31T06:23:35;3.77;;;1.40;;
46931;SDS011;32670;51.464;11.964;2023-03-31T06:26:01;2.47;;;1.20;;
46931;SDS011;32670;51.464;11.964;2023-03-31T06:28:35;4.17;;;1.40;;
46931;SDS011;32670;51.464;11.964;2023-03-31T06:33:27;2.43;;;1.20;;
46931;SDS011;32670;51.464;11.964;2023-03-31T06:35:54;14.57;;;2.43;;
46931;SDS011;32670;51.464;11.964;2023-03-31T06:38:21;22.43;;;3.07;;
46931;SDS011;32670;51.464;11.964;2023-03-31T06:40:47;24.43;;;3.50;;
46931;SDS011;32670;51.464;11.964;2023-03-31T06:43:13;24.97;;;4.93;;
46931;SDS011;32670;51.464;11.964;2023-03-31T06:45:38;21.27;;;4.03;;
46931;SDS011;32670;51.464;11.964;2023-03-31T06:48:04;13.03;;;2.73;;
46931;SDS011;32670;51.464;11.964;2023-03-31T06:50:30;6.70;;;1.80;;
46931;SDS011;32670;51.464;11.964;2023-03-31T06:52:55;4.47;;;2.00;;
46931;SDS011;32670;51.464;11.964;2023-03-31T06:55:21;10.73;;;2.00;;
46931;SDS011;32670;51.464;11.964;2023-03-31T06:57:46;7.07;;;2.10;;
46931;SDS011;32670;51.464;11.964;2023-03-31T07:00:12;3.97;;;1.50;;
46931;SDS011;32670;51.464;11.964;2023-03-31T07:02:38;4.30;;;1.40;;
46931;SDS011;32670;51.464;11.964;2023-03-31T07:05:03;4.87;;;1.50;;
46931;SDS011;32670;51.464;11.964;2023-03-31T07:07:30;2.43;;;1.23;;
46931;SDS011;32670;51.464;11.964;2023-03-31T07:09:56;3.23;;;1.30;;
46931;SDS011;32670;51.464;11.964;2023-03-31T07:12:22;2.43;;;1.10;;
46931;SDS011;32670;51.464;11.964;2023-03-31T07:14:48;4.50;;;1.50;;
46931;SDS011;32670;51.464;11.964;2023-03-31T07:17:13;3.80;;;1.40;;
46931;SDS011;32670;51.464;11.964;2023-03-31T07:19:39;2.50;;;1.50;;
46931;SDS011;32670;51.464;11.964;2023-03-31T07:22:06;3.47;;;1.60;;
46931;SDS011;32670;51.464;11.964;2023-03-31T07:24:32;4.00;;;1.63;;
46931;SDS011;32670;51.464;11.964;2023-03-31T07:26:57;2.33;;;1.27;;
46931;SDS011;32670;51.464;11.964;2023-03-31T07:29:22;2.67;;;1.60;;
46931;SDS011;32670;51.464;11.964;2023-03-31T07:31:48;3.47;;;1.50;;
46931;SDS011;32670;51.464;11.964;2023-03-31T07:34:14;3.50;;;1.70;;
46931;SDS011;32670;51.464;11.964;2023-03-31T07:36:40;3.80;;;1.60;;
46931;SDS011;32670;51.464;11.964;2023-03-31T07:39:05;2.90;;;1.40;;
46931;SDS011;32670;51.464;11.964;2023-03-31T07:41:31;3.83;;;1.90;;
46931;SDS011;32670;51.464;11.964;2023-03-31T07:44:00;4.27;;;1.97;;
46931;SDS011;32670;51.464;11.964;2023-03-31T07:46:26;2.67;;;1.70;;
46931;SDS011;32670;51.464;11.964;2023-03-31T07:48:54;2.70;;;1.70;;
46931;SDS011;32670;51.464;11.964;2023-03-31T07:51:21;3.13;;;1.93;;
46931;SDS011;32670;51.464;11.964;2023-03-31T07:53:49;2.30;;;1.73;;
46931;SDS011;32670;51.464;11.964;2023-03-31T07:56:16;2.33;;;1.53;;
46931;SDS011;32670;51.464;11.964;2023-03-31T07:58:43;3.33;;;1.83;;
46931;SDS011;32670;51.464;11.964;2023-03-31T08:01:09;4.03;;;1.80;;
46931;SDS011;32670;51.464;11.964;2023-03-31T08:03:41;2.77;;;1.80;;
46931;SDS011;32670;51.464;11.964;2023-03-31T08:06:06;2.73;;;1.87;;
46931;SDS011;32670;51.464;11.964;2023-03-31T08:08:32;2.70;;;1.87;;
46931;SDS011;32670;51.464;11.964;2023-03-31T08:10:58;3.97;;;2.00;;
46931;SDS011;32670;51.464;11.964;2023-03-31T08:13:23;4.13;;;2.10;;
46931;SDS011;32670;51.464;11.964;2023-03-31T08:15:49;2.80;;;1.90;;
46931;SDS011;32670;51.464;11.964;2023-03-31T08:18:15;2.57;;;1.93;;
46931;SDS011;32670;51.464;11.964;2023-03-31T08:20:40;3.10;;;2.10;;
46931;SDS011;32670;51.464;11.964;2023-03-31T08:23:06;3.10;;;2.20;;
46931;SDS011;32670;51.464;11.964;2023-03-31T08:25:35;3.70;;;2.13;;
46931;SDS011;32670;51.464;11.964;2023-03-31T08:28:01;2.80;;;1.83;;
46931;SDS011;32670;51.464;11.964;2023-03-31T08:30:26;2.37;;;2.00;;
46931;SDS011;32670;51.464;11.964;2023-03-31T08:32:52;2.13;;;1.80;;
46931;SDS011;32670;51.464;11.964;2023-03-31T08:35:17;2.67;;;1.90;;
46931;SDS011;32670;51.464;11.964;2023-03-31T08:37:42;3.23;;;2.00;;
46931;SDS011;32670;51.464;11.964;2023-03-31T08:40:12;3.53;;;1.90;;
46931;SDS011;32670;51.464;11.964;2023-03-31T08:42:44;4.20;;;2.00;;
46931;SDS011;32670;51.464;11.964;2023-03-31T08:45:47;3.00;;;2.00;;
46931;SDS011;32670;51.464;11.964;2023-03-31T08:48:26;2.80;;;1.90;;
46931;SDS011;32670;51.464;11.964;2023-03-31T08:51:08;2.73;;;1.70;;
46931;SDS011;32670;51.464;11.964;2023-03-31T08:53:59;3.17;;;1.93;;
46931;SDS011;32670;51.464;11.964;2023-03-31T08:56:27;2.87;;;2.10;;
46931;SDS011;32670;51.464;11.964;2023-03-31T08:58:57;2.90;;;1.80;;
46931;SDS011;32670;51.464;11.964;2023-03-31T09:01:41;3.13;;;1.90;;
46931;SDS011;32670;51.464;11.964;2023-03-31T09:06:59;2.10;;;1.73;;
46931;SDS011;32670;51.464;11.964;2023-03-31T09:09:54;6.23;;;2.03;;
46931;SDS011;32670;51.464;11.964;2023-03-31T09:12:51;2.70;;;2.00;;
46931;SDS011;32670;51.464;11.964;2023-03-31T09:15:36;2.90;;;2.30;;
46931;SDS011;32670;51.464;11.964;2023-03-31T09:18:07;4.17;;;2.50;;
46931;SDS011;32670;51.464;11.964;2023-03-31T09:20:43;4.70;;;2.87;;
46931;SDS011;32670;51.464;11.964;2023-03-31T09:23:26;4.87;;;3.00;;
46931;SDS011;32670;51.464;11.964;2023-03-31T09:25:56;4.93;;;2.90;;
46931;SDS011;32670;51.464;11.964;2023-03-31T09:28:38;3.57;;;2.63;;
46931;SDS011;32670;51.464;11.964;2023-03-31T09:31:07;5.03;;;2.90;;
46931;SDS011;32670;51.464;11.964;2023-03-31T09:33:44;4.07;;;2.70;;
46931;SDS011;32670;51.464;11.964;2023-03-31T09:36:16;3.97;;;2.47;;
46931;SDS011;32670;51.464;11.964;2023-03-31T09:38:43;4.07;;;2.53;;
46931;SDS011;32670;51.464;11.964;2023-03-31T09:41:10;4.07;;;2.70;;
46931;SDS011;32670;51.464;11.964;2023-03-31T09:43:38;6.20;;;2.77;;
46931;SDS011;32670;51.464;11.964;2023-03-31T09:46:10;3.67;;;2.57;;
46931;SDS011;32670;51.464;11.964;2023-03-31T09:48:41;3.73;;;2.93;;
46931;SDS011;32670;51.464;11.964;2023-03-31T09:51:17;3.57;;;2.80;;
46931;SDS011;32670;51.464;11.964;2023-03-31T09:56:30;2.73;;;2.33;;
46931;SDS011;32670;51.464;11.964;2023-03-31T09:59:00;4.07;;;2.40;;
46931;SDS011;32670;51.464;11.964;2023-03-31T10:01:26;3.80;;;2.50;;
46931;SDS011;32670;51.464;11.964;2023-03-31T10:03:53;3.00;;;2.37;;
46931;SDS011;32670;51.464;11.964;2023-03-31T10:06:20;3.17;;;2.20;;
46931;SDS011;32670;51.464;11.964;2023-03-31T10:08:49;3.93;;;2.70;;
46931;SDS011;32670;51.464;11.964;2023-03-31T10:11:21;4.63;;;2.53;;
46931;SDS011;32670;51.464;11.964;2023-03-31T10:14:01;3.03;;;2.47;;
46931;SDS011;32670;51.464;11.964;2023-03-31T10:16:33;3.17;;;2.50;;
46931;SDS011;32670;51.464;11.964;2023-03-31T10:19:11;5.47;;;2.63;;
46931;SDS011;32670;51.464;11.964;2023-03-31T10:21:42;3.37;;;2.40;;
46931;SDS011;32670;51.464;11.964;2023-03-31T10:24:16;3.53;;;2.40;;
46931;SDS011;32670;51.464;11.964;2023-03-31T10:26:45;3.57;;;2.40;;
46931;SDS011;32670;51.464;11.964;2023-03-31T10:29:14;4.17;;;2.60;;
46931;SDS011;32670;51.464;11.964;2023-03-31T10:31:49;4.07;;;2.60;;
46931;SDS011;32670;51.464;11.964;2023-03-31T10:34:15;3.17;;;2.33;;
46931;SDS011;32670;51.464;11.964;2023-03-31T10:36:46;3.03;;;2.17;;
46931;SDS011;32670;51.464;11.964;2023-03-31T10:39:17;4.40;;;2.40;;
46931;SDS011;32670;51.464;11.964;2023-03-31T10:41:48;3.20;;;2.17;;
46931;SDS011;32670;51.464;11.964;2023-03-31T10:44:34;3.53;;;2.53;;
46931;SDS011;32670;51.464;11.964;2023-03-31T10:47:08;3.70;;;2.47;;
46931;SDS011;32670;51.464;11.964;2023-03-31T10:49:42;5.80;;;2.80;;
46931;SDS011;32670;51.464;11.964;2023-03-31T10:52:14;3.43;;;2.33;;
46931;SDS011;32670;51.464;11.964;2023-03-31T10:54:45;2.50;;;2.23;;
46931;SDS011;32670;51.464;11.964;2023-03-31T10:57:14;3.57;;;2.60;;
46931;SDS011;32670;51.464;11.964;2023-03-31T11:02:37;2.70;;;2.27;;
46931;SDS011;32670;51.464;11.964;2023-03-31T11:05:14;2.57;;;2.13;;
46931;SDS011;32670;51.464;11.964;2023-03-31T11:08:22;2.67;;;2.10;;
46931;SDS011;32670;51.464;11.964;2023-03-31T11:11:32;2.87;;;2.30;;
46931;SDS011;32670;51.464;11.964;2023-03-31T11:14:28;3.63;;;2.30;;
46931;SDS011;32670;51.464;11.964;2023-03-31T11:17:21;3.57;;;2.50;;
46931;SDS011;32670;51.464;11.964;2023-03-31T11:22:40;3.60;;;2.30;;
46931;SDS011;32670;51.464;11.964;2023-03-31T11:30:27;3.63;;;2.53;;
46931;SDS011;32670;51.464;11.964;2023-03-31T11:36:11;3.47;;;2.40;;
46931;SDS011;32670;51.464;11.964;2023-03-31T11:41:43;3.57;;;2.47;;
46931;SDS011;32670;51.464;11.964;2023-03-31T11:44:14;3.20;;;2.90;;
46931;SDS011;32670;51.464;11.964;2023-03-31T11:46:47;3.77;;;2.93;;
46931;SDS011;32670;51.464;11.964;2023-03-31T11:49:21;3.63;;;2.50;;
46931;SDS011;32670;51.464;11.964;2023-03-31T11:51:56;4.27;;;1.97;;
46931;SDS011;32670;51.464;11.964;2023-03-31T11:54:29;3.13;;;1.80;;
46931;SDS011;32670;51.464;11.964;2023-03-31T11:57:12;2.33;;;1.70;;
46931;SDS011;32670;51.464;11.964;2023-03-31T11:59:58;2.93;;;2.10;;
46931;SDS011;32670;51.464;11.964;2023-03-31T12:05:15;3.10;;;1.90;;
46931;SDS011;32670;51.464;11.964;2023-03-31T12:10:20;3.60;;;2.03;;
46931;SDS011;32670;51.464;11.964;2023-03-31T12:12:50;4.80;;;2.00;;
46931;SDS011;32670;51.464;11.964;2023-03-31T12:15:24;3.13;;;2.20;;
46931;SDS011;32670;51.464;11.964;2023-03-31T12:18:14;4.70;;;2.30;;
46931;SDS011;32670;51.464;11.964;2023-03-31T12:20:46;3.20;;;1.93;;
46931;SDS011;32670;51.464;11.964;2023-03-31T12:23:19;2.77;;;1.90;;
46931;SDS011;32670;51.464;11.964;2023-03-31T12:28:29;3.37;;;2.00;;
46931;SDS011;32670;51.464;11.964;2023-03-31T12:30:56;2.43;;;1.90;;
46931;SDS011;32670;51.464;11.964;2023-03-31T12:33:31;3.20;;;1.73;;
46931;SDS011;32670;51.464;11.964;2023-03-31T12:36:13;3.40;;;2.37;;
46931;SDS011;32670;51.464;11.964;2023-03-31T12:38:54;2.70;;;1.80;;
46931;SDS011;32670;51.464;11.964;2023-03-31T12:41:37;3.77;;;1.63;;
46931;SDS011;32670;51.464;11.964;2023-03-31T12:47:17;2.33;;;1.50;;
46931;SDS011;32670;51.464;11.964;2023-03-31T12:50:04;4.27;;;1.70;;
46931;SDS011;32670;51.464;11.964;2023-03-31T12:52:51;4.23;;;1.80;;
46931;SDS011;32670;51.464;11.964;2023-03-31T12:55:26;2.10;;;1.60;;
46931;SDS011;32670;51.464;11.964;2023-03-31T13:05:58;3.07;;;2.20;;
46931;SDS011;32670;51.464;11.964;2023-03-31T13:11:19;2.03;;;1.63;;
46931;SDS011;32670;51.464;11.964;2023-03-31T13:14:01;1.83;;;1.73;;
46931;SDS011;32670;51.464;11.964;2023-03-31T13:16:39;4.07;;;1.90;;
46931;SDS011;32670;51.464;11.964;2023-03-31T13:19:05;2.67;;;1.80;;
46931;SDS011;32670;51.464;11.964;2023-03-31T13:21:31;2.57;;;1.80;;
46931;SDS011;32670;51.464;11.964;2023-03-31T13:24:16;1.50;;;1.40;;
46931;SDS011;32670;51.464;11.964;2023-03-31T13:26:50;2.23;;;1.80;;
46931;SDS011;32670;51.464;11.964;2023-03-31T13:29:21;3.57;;;2.10;;
46931;SDS011;32670;51.464;11.964;2023-03-31T13:34:38;2.40;;;1.80;;
46931;SDS011;32670;51.464;11.964;2023-03-31T13:40:16;2.20;;;1.83;;
46931;SDS011;32670;51.464;11.964;2023-03-31T13:43:06;2.27;;;2.07;;
46931;SDS011;32670;51.464;11.964;2023-03-31T13:45:52;2.27;;;2.07;;
46931;SDS011;32670;51.464;11.964;2023-03-31T13:48:54;2.23;;;1.80;;
46931;SDS011;32670;51.464;11.964;2023-03-31T13:51:30;1.80;;;1.50;;
46931;SDS011;32670;51.464;11.964;2023-03-31T13:54:32;2.00;;;1.70;;
46931;SDS011;32670;51.464;11.964;2023-03-31T13:57:19;2.30;;;1.63;;
46931;SDS011;32670;51.464;11.964;2023-03-31T14:05:32;2.63;;;1.53;;
46931;SDS011;32670;51.464;11.964;2023-03-31T14:08:22;2.67;;;1.80;;
46931;SDS011;32670;51.464;11.964;2023-03-31T14:11:23;2.77;;;1.60;;
46931;SDS011;32670;51.464;11.964;2023-03-31T14:16:24;1.77;;;1.57;;
46931;SDS011;32670;51.464;11.964;2023-03-31T14:18:51;3.37;;;1.60;;
46931;SDS011;32670;51.464;11.964;2023-03-31T14:21:48;2.23;;;1.87;;
46931;SDS011;32670;51.464;11.964;2023-03-31T14:24:35;3.53;;;1.60;;
46931;SDS011;32670;51.464;11.964;2023-03-31T14:33:31;2.80;;;1.70;;
46931;SDS011;32670;51.464;11.964;2023-03-31T14:36:01;3.00;;;1.80;;
46931;SDS011;32670;51.464;11.964;2023-03-31T14:38:37;2.23;;;1.60;;
46931;SDS011;32670;51.464;11.964;2023-03-31T14:41:02;2.00;;;1.80;;
46931;SDS011;32670;51.464;11.964;2023-03-31T14:43:29;2.50;;;1.77;;
46931;SDS011;32670;51.464;11.964;2023-03-31T14:46:01;1.83;;;1.50;;
46931;SDS011;32670;51.464;11.964;2023-03-31T14:48:28;2.57;;;1.50;;
46931;SDS011;32670;51.464;11.964;2023-03-31T14:50:56;2.73;;;1.60;;
46931;SDS011;32670;51.464;11.964;2023-03-31T14:53:24;2.17;;;1.70;;
46931;SDS011;32670;51.464;11.964;2023-03-31T14:55:53;6.07;;;3.90;;
46931;SDS011;32670;51.464;11.964;2023-03-31T14:58:48;4.27;;;2.37;;
46931;SDS011;32670;51.464;11.964;2023-03-31T15:01:18;3.27;;;2.87;;
46931;SDS011;32670;51.464;11.964;2023-03-31T15:03:47;3.30;;;3.00;;
46931;SDS011;32670;51.464;11.964;2023-03-31T15:06:14;4.13;;;2.80;;
46931;SDS011;32670;51.464;11.964;2023-03-31T15:08:40;5.07;;;2.80;;
46931;SDS011;32670;51.464;11.964;2023-03-31T15:11:12;3.30;;;2.93;;
46931;SDS011;32670;51.464;11.964;2023-03-31T15:13:44;3.37;;;2.87;;
46931;SDS011;32670;51.464;11.964;2023-03-31T15:16:19;5.27;;;3.10;;
46931;SDS011;32670;51.464;11.964;2023-03-31T15:18:56;4.00;;;3.20;;
46931;SDS011;32670;51.464;11.964;2023-03-31T15:21:24;3.50;;;3.13;;
46931;SDS011;32670;51.464;11.964;2023-03-31T15:23:52;4.80;;;4.03;;
46931;SDS011;32670;51.464;11.964;2023-03-31T15:26:20;3.90;;;3.40;;
46931;SDS011;32670;51.464;11.964;2023-03-31T15:28:56;5.67;;;3.57;;
46931;SDS011;32670;51.464;11.964;2023-03-31T15:31:29;4.50;;;3.40;;
46931;SDS011;32670;51.464;11.964;2023-03-31T15:33:56;5.67;;;3.03;;
46931;SDS011;32670;51.464;11.964;2023-03-31T15:36:21;4.40;;;3.23;;
46931;SDS011;32670;51.464;11.964;2023-03-31T15:38:51;3.47;;;3.17;;
46931;SDS011;32670;51.464;11.964;2023-03-31T15:41:21;4.27;;;3.40;;
46931;SDS011;32670;51.464;11.964;2023-03-31T15:43:47;3.43;;;3.13;;
46931;SDS011;32670;51.464;11.964;2023-03-31T15:46:24;4.17;;;3.07;;
46931;SDS011;32670;51.464;11.964;2023-03-31T15:49:21;3.23;;;2.97;;
46931;SDS011;32670;51.464;11.964;2023-03-31T15:51:48;3.40;;;3.10;;
46931;SDS011;32670;51.464;11.964;2023-03-31T15:54:39;4.93;;;3.10;;
46931;SDS011;32670;51.464;11.964;2023-03-31T15:57:05;3.20;;;2.90;;
46931;SDS011;32670;51.464;11.964;2023-03-31T15:59:48;4.87;;;3.10;;
46931;SDS011;32670;51.464;11.964;2023-03-31T16:02:16;4.53;;;3.07;;
46931;SDS011;32670;51.464;11.964;2023-03-31T16:04:46;5.37;;;3.20;;
46931;SDS011;32670;51.464;11.964;2023-03-31T16:07:15;3.57;;;2.90;;
46931;SDS011;32670;51.464;11.964;2023-03-31T16:14:57;3.67;;;2.90;;
46931;SDS011;32670;51.464;11.964;2023-03-31T16:17:33;3.47;;;3.17;;
46931;SDS011;32670;51.464;11.964;2023-03-31T16:20:15;3.77;;;2.90;;
46931;SDS011;32670;51.464;11.964;2023-03-31T16:22:44;3.63;;;3.17;;
46931;SDS011;32670;51.464;11.964;2023-03-31T16:25:15;3.30;;;3.00;;
46931;SDS011;32670;51.464;11.964;2023-03-31T16:27:47;3.63;;;3.30;;
46931;SDS011;32670;51.464;11.964;2023-03-31T16:30:17;3.90;;;2.83;;
46931;SDS011;32670;51.464;11.964;2023-03-31T16:32:57;4.00;;;3.03;;
46931;SDS011;32670;51.464;11.964;2023-03-31T16:35:31;5.07;;;2.97;;
46931;SDS011;32670;51.464;11.964;2023-03-31T16:37:57;3.47;;;3.10;;
46931;SDS011;32670;51.464;11.964;2023-03-31T16:40:25;3.30;;;3.00;;
46931;SDS011;32670;51.464;11.964;2023-03-31T16:45:35;3.10;;;2.80;;